sensor_id;sensor_type;location;lat;lon;timestamp;temperature;humidity
19174;DHT22;9719;49.322;8.536;2023-04-16T00:03:36;11.40;99.90
19174;DHT22;9719;49.322;8.536;2023-04-16T00:08:39;11.50;99.90
19174;DHT22;9719;49.322;8.536;2023-04-16T00:13:42;11.40;99.90
19174;DHT22;9719;49.322;8.536;2023-04-16T00:18:44;11.40;99.90
19174;DHT22;9719;49.322;8.536;2023-04-16T00:23:47;11.50;99.90
19174;DHT22;9719;49.322;8.536;2023-04-16T00:28:49;11.50;99.90
19174;DHT22;9719;49.322;8.536;2023-04-16T00:33:50;11.50;99.90
19174;DHT22;9719;49.322;8.536;2023-04-16T00:38:54;11.50;99.90
19174;DHT22;9719;49.322;8.536;2023-04-16T00:43:56;11.50;99.90
19174;DHT22;9719;49.322;8.536;2023-04-16T00:48:59;11.50;99.90
19174;DHT22;9719;49.322;8.536;2023-04-16T00:54:03;11.50;99.90
19174;DHT22;9719;49.322;8.536;2023-04-16T00:59:05;11.50;99.90
19174;DHT22;9719;49.322;8.536;2023-04-16T01:04:06;11.50;99.90
19174;DHT22;9719;49.322;8.536;2023-04-16T01:09:10;11.40;99.90
19174;DHT22;9719;49.322;8.536;2023-04-16T01:14:12;11.40;99.90
19174;DHT22;9719;49.322;8.536;2023-04-16T01:19:13;11.30;99.90
19174;DHT22;9719;49.322;8.536;2023-04-16T01:24:16;11.20;99.90
19174;DHT22;9719;49.322;8.536;2023-04-16T01:29:18;11.20;99.90
19174;DHT22;9719;49.322;8.536;2023-04-16T01:34:20;11.20;99.90
19174;DHT22;9719;49.322;8.536;2023-04-16T01:39:23;11.20;99.90
19174;DHT22;9719;49.322;8.536;2023-04-16T01:44:24;11.20;99.90
19174;DHT22;9719;49.322;8.536;2023-04-16T01:49:28;11.20;99.90
19174;DHT22;9719;49.322;8.536;2023-04-16T01:54:32;11.30;99.90
19174;DHT22;9719;49.322;8.536;2023-04-16T01:59:34;11.20;99.90
19174;DHT22;9719;49.322;8.536;2023-04-16T02:04:36;11.30;99.90
19174;DHT22;9719;49.322;8.536;2023-04-16T02:09:40;11.30;99.90
19174;DHT22;9719;49.322;8.536;2023-04-16T02:14:42;11.20;99.90
19174;DHT22;9719;49.322;8.536;2023-04-16T02:19:43;11.20;99.90
19174;DHT22;9719;49.322;8.536;2023-04-16T02:24:47;11.10;99.90
19174;DHT22;9719;49.322;8.536;2023-04-16T02:29:50;11.10;99.90
19174;DHT22;9719;49.322;8.536;2023-04-16T02:34:51;11.10;99.90
19174;DHT22;9719;49.322;8.536;2023-04-16T02:39:54;11.10;99.90
19174;DHT22;9719;49.322;8.536;2023-04-16T02:44:57;11.10;99.90
19174;DHT22;9719;49.322;8.536;2023-04-16T02:49:58;11.00;99.90
19174;DHT22;9719;49.322;8.536;2023-04-16T02:55:02;11.10;99.90
19174;DHT22;9719;49.322;8.536;2023-04-16T03:00:04;11.10;99.90
19174;DHT22;9719;49.322;8.536;2023-04-16T03:05:07;11.10;99.90
19174;DHT22;9719;49.322;8.536;2023-04-16T03:10:10;11.10;99.90
19174;DHT22;9719;49.322;8.536;2023-04-16T03:15:13;11.10;99.90
19174;DHT22;9719;49.322;8.536;2023-04-16T03:20:15;11.10;99.90
19174;DHT22;9719;49.322;8.536;2023-04-16T03:25:18;11.10;99.90
19174;DHT22;9719;49.322;8.536;2023-04-16T03:30:20;11.10;99.90
19174;DHT22;9719;49.322;8.536;2023-04-16T03:35:22;11.10;99.90
19174;DHT22;9719;49.322;8.536;2023-04-16T03:40:25;11.10;99.90
19174;DHT22;9719;49.322;8.536;2023-04-16T03:45:27;11.10;99.90
19174;DHT22;9719;49.322;8.536;2023-04-16T03:50:28;11.10;99.90
19174;DHT22;9719;49.322;8.536;2023-04-16T03:55:32;11.20;99.90
19174;DHT22;9719;49.322;8.536;2023-04-16T04:00:33;11.20;99.90
19174;DHT22;9719;49.322;8.536;2023-04-16T04:05:35;11.20;99.90
19174;DHT22;9719;49.322;8.536;2023-04-16T04:10:39;11.20;99.90
19174;DHT22;9719;49.322;8.536;2023-04-16T04:15:41;11.20;99.90
19174;DHT22;9719;49.322;8.536;2023-04-16T04:20:43;11.20;99.90
19174;DHT22;9719;49.322;8.536;2023-04-16T04:25:46;11.10;99.90
19174;DHT22;9719;49.322;8.536;2023-04-16T04:30:48;11.10;99.90
19174;DHT22;9719;49.322;8.536;2023-04-16T04:35:50;11.10;99.90
19174;DHT22;9719;49.322;8.536;2023-04-16T04:40:53;11.10;99.90
19174;DHT22;9719;49.322;8.536;2023-04-16T04:45:54;11.10;99.90
19174;DHT22;9719;49.322;8.536;2023-04-16T04:50:56;11.10;99.90
19174;DHT22;9719;49.322;8.536;2023-04-16T04:55:59;11.10;99.90
19174;DHT22;9719;49.322;8.536;2023-04-16T05:01:01;11.20;99.90
19174;DHT22;9719;49.322;8.536;2023-04-16T05:06:03;11.20;99.90
19174;DHT22;9719;49.322;8.536;2023-04-16T05:11:06;11.30;99.90
19174;DHT22;9719;49.322;8.536;2023-04-16T05:16:08;11.30;99.90
19174;DHT22;9719;49.322;8.536;2023-04-16T05:21:09;11.40;99.90
19174;DHT22;9719;49.322;8.536;2023-04-16T05:26:12;11.40;99.90
19174;DHT22;9719;49.322;8.536;2023-04-16T05:31:14;11.40;99.90
19174;DHT22;9719;49.322;8.536;2023-04-16T05:36:16;11.40;99.90
19174;DHT22;9719;49.322;8.536;2023-04-16T05:41:19;11.40;99.90
19174;DHT22;9719;49.322;8.536;2023-04-16T05:46:21;11.50;99.90
19174;DHT22;9719;49.322;8.536;2023-04-16T05:51:22;11.60;99.90
19174;DHT22;9719;49.322;8.536;2023-04-16T05:56:28;11.60;99.90
19174;DHT22;9719;49.322;8.536;2023-04-16T06:01:29;11.70;99.90
19174;DHT22;9719;49.322;8.536;2023-04-16T06:06:31;11.70;99.90
19174;DHT22;9719;49.322;8.536;2023-04-16T06:11:34;11.70;99.90
19174;DHT22;9719;49.322;8.536;2023-04-16T06:16:36;11.70;99.90
19174;DHT22;9719;49.322;8.536;2023-04-16T06:21:38;11.80;99.90
19174;DHT22;9719;49.322;8.536;2023-04-16T06:26:41;11.90;99.90
19174;DHT22;9719;49.322;8.536;2023-04-16T06:31:42;11.90;99.90
19174;DHT22;9719;49.322;8.536;2023-04-16T06:36:44;12.00;99.90
19174;DHT22;9719;49.322;8.536;2023-04-16T06:41:47;12.00;99.90
19174;DHT22;9719;49.322;8.536;2023-04-16T06:46:49;12.00;99.90
19174;DHT22;9719;49.322;8.536;2023-04-16T06:51:51;12.00;99.90
19174;DHT22;9719;49.322;8.536;2023-04-16T06:56:54;12.00;99.90
19174;DHT22;9719;49.322;8.536;2023-04-16T07:01:55;12.00;99.90
19174;DHT22;9719;49.322;8.536;2023-04-16T07:06:57;11.90;99.90
19174;DHT22;9719;49.322;8.536;2023-04-16T07:12:00;11.90;99.90
19174;DHT22;9719;49.322;8.536;2023-04-16T07:17:02;11.90;99.90
19174;DHT22;9719;49.322;8.536;2023-04-16T07:22:04;11.90;99.90
19174;DHT22;9719;49.322;8.536;2023-04-16T07:27:07;11.80;99.90
19174;DHT22;9719;49.322;8.536;2023-04-16T07:32:09;11.90;99.90
19174;DHT22;9719;49.322;8.536;2023-04-16T07:37:10;11.90;99.90
19174;DHT22;9719;49.322;8.536;2023-04-16T07:42:13;12.00;99.90
19174;DHT22;9719;49.322;8.536;2023-04-16T07:47:15;12.00;99.90
19174;DHT22;9719;49.322;8.536;2023-04-16T07:52:17;12.00;99.90
19174;DHT22;9719;49.322;8.536;2023-04-16T07:57:20;12.20;99.90
19174;DHT22;9719;49.322;8.536;2023-04-16T08:02:22;12.40;99.90
19174;DHT22;9719;49.322;8.536;2023-04-16T08:07:23;12.60;99.90
19174;DHT22;9719;49.322;8.536;2023-04-16T08:12:27;12.70;99.90
19174;DHT22;9719;49.322;8.536;2023-04-16T08:17:29;12.80;99.90
19174;DHT22;9719;49.322;8.536;2023-04-16T08:22:32;13.00;99.90
19174;DHT22;9719;49.322;8.536;2023-04-16T08:27:35;13.10;99.90
19174;DHT22;9719;49.322;8.536;2023-04-16T08:32:37;13.10;99.90
19174;DHT22;9719;49.322;8.536;2023-04-16T08:37:39;13.10;99.90
19174;DHT22;9719;49.322;8.536;2023-04-16T08:42:44;13.20;99.90
19174;DHT22;9719;49.322;8.536;2023-04-16T08:47:50;13.20;99.90
19174;DHT22;9719;49.322;8.536;2023-04-16T08:52:58;13.20;99.90
19174;DHT22;9719;49.322;8.536;2023-04-16T08:58:05;13.10;99.90
19174;DHT22;9719;49.322;8.536;2023-04-16T09:03:08;13.20;99.90
19174;DHT22;9719;49.322;8.536;2023-04-16T09:08:11;13.10;99.90
19174;DHT22;9719;49.322;8.536;2023-04-16T09:13:14;13.00;99.90
19174;DHT22;9719;49.322;8.536;2023-04-16T09:18:17;13.00;99.90
19174;DHT22;9719;49.322;8.536;2023-04-16T09:23:19;12.90;99.90
19174;DHT22;9719;49.322;8.536;2023-04-16T09:28:39;12.80;99.90
19174;DHT22;9719;49.322;8.536;2023-04-16T09:33:42;12.70;99.90
19174;DHT22;9719;49.322;8.536;2023-04-16T09:38:47;12.70;99.90
19174;DHT22;9719;49.322;8.536;2023-04-16T09:43:55;12.60;99.90
19174;DHT22;9719;49.322;8.536;2023-04-16T09:48:57;12.60;99.90
19174;DHT22;9719;49.322;8.536;2023-04-16T09:54:03;12.60;99.90
19174;DHT22;9719;49.322;8.536;2023-04-16T09:59:07;12.60;99.90
19174;DHT22;9719;49.322;8.536;2023-04-16T10:04:09;12.60;99.90
19174;DHT22;9719;49.322;8.536;2023-04-16T10:09:11;12.50;99.90
19174;DHT22;9719;49.322;8.536;2023-04-16T10:14:14;12.50;99.90
19174;DHT22;9719;49.322;8.536;2023-04-16T10:19:16;12.60;99.90
19174;DHT22;9719;49.322;8.536;2023-04-16T10:24:17;12.70;99.90
19174;DHT22;9719;49.322;8.536;2023-04-16T10:29:21;12.80;99.90
19174;DHT22;9719;49.322;8.536;2023-04-16T10:34:24;12.80;99.90
19174;DHT22;9719;49.322;8.536;2023-04-16T10:39:27;12.70;99.90
19174;DHT22;9719;49.322;8.536;2023-04-16T10:44:30;12.70;99.90
19174;DHT22;9719;49.322;8.536;2023-04-16T10:49:34;12.70;99.90
19174;DHT22;9719;49.322;8.536;2023-04-16T10:54:36;12.80;99.90
19174;DHT22;9719;49.322;8.536;2023-04-16T10:59:41;12.80;99.90
19174;DHT22;9719;49.322;8.536;2023-04-16T11:04:44;12.80;99.90
19174;DHT22;9719;49.322;8.536;2023-04-16T11:09:56;12.80;99.90
19174;DHT22;9719;49.322;8.536;2023-04-16T11:15:01;12.80;99.90
19174;DHT22;9719;49.322;8.536;2023-04-16T11:20:04;12.80;99.90
19174;DHT22;9719;49.322;8.536;2023-04-16T11:25:07;12.70;99.90
19174;DHT22;9719;49.322;8.536;2023-04-16T11:30:11;12.80;99.90
19174;DHT22;9719;49.322;8.536;2023-04-16T11:35:15;12.80;99.90
19174;DHT22;9719;49.322;8.536;2023-04-16T11:40:16;12.90;99.90
19174;DHT22;9719;49.322;8.536;2023-04-16T11:45:19;12.90;99.90
19174;DHT22;9719;49.322;8.536;2023-04-16T11:50:22;13.00;99.90
19174;DHT22;9719;49.322;8.536;2023-04-16T11:55:24;13.00;99.90
19174;DHT22;9719;49.322;8.536;2023-04-16T12:00:33;13.10;99.90
19174;DHT22;9719;49.322;8.536;2023-04-16T12:05:36;13.20;99.90
19174;DHT22;9719;49.322;8.536;2023-04-16T12:10:53;13.20;99.90
19174;DHT22;9719;49.322;8.536;2023-04-16T12:15:57;13.30;99.90
19174;DHT22;9719;49.322;8.536;2023-04-16T12:21:03;13.30;99.90
19174;DHT22;9719;49.322;8.536;2023-04-16T12:26:07;13.30;99.90
19174;DHT22;9719;49.322;8.536;2023-04-16T12:31:12;13.30;99.90
19174;DHT22;9719;49.322;8.536;2023-04-16T12:36:18;13.30;99.90
19174;DHT22;9719;49.322;8.536;2023-04-16T12:41:20;13.30;99.90
19174;DHT22;9719;49.322;8.536;2023-04-16T12:46:23;13.30;99.90
19174;DHT22;9719;49.322;8.536;2023-04-16T12:51:25;13.30;99.90
19174;DHT22;9719;49.322;8.536;2023-04-16T12:56:27;13.40;99.90
19174;DHT22;9719;49.322;8.536;2023-04-16T13:01:30;13.50;99.90
19174;DHT22;9719;49.322;8.536;2023-04-16T13:06:35;13.60;99.90
19174;DHT22;9719;49.322;8.536;2023-04-16T13:11:37;13.60;99.90
19174;DHT22;9719;49.322;8.536;2023-04-16T13:16:41;13.60;99.90
19174;DHT22;9719;49.322;8.536;2023-04-16T13:21:43;13.60;99.90
19174;DHT22;9719;49.322;8.536;2023-04-16T13:26:44;13.70;99.90
19174;DHT22;9719;49.322;8.536;2023-04-16T13:31:48;13.70;99.90
19174;DHT22;9719;49.322;8.536;2023-04-16T13:36:49;13.80;99.90
19174;DHT22;9719;49.322;8.536;2023-04-16T13:41:51;13.80;99.90
19174;DHT22;9719;49.322;8.536;2023-04-16T13:46:54;13.80;99.90
19174;DHT22;9719;49.322;8.536;2023-04-16T13:51:56;13.80;99.90
19174;DHT22;9719;49.322;8.536;2023-04-16T13:56:58;13.70;99.90
19174;DHT22;9719;49.322;8.536;2023-04-16T14:02:01;13.70;99.90
19174;DHT22;9719;49.322;8.536;2023-04-16T14:07:04;13.70;99.90
19174;DHT22;9719;49.322;8.536;2023-04-16T14:12:06;13.60;99.90
19174;DHT22;9719;49.322;8.536;2023-04-16T14:17:09;13.60;99.90
19174;DHT22;9719;49.322;8.536;2023-04-16T14:22:11;13.60;99.90
19174;DHT22;9719;49.322;8.536;2023-04-16T14:27:17;13.60;99.90
19174;DHT22;9719;49.322;8.536;2023-04-16T14:32:20;13.60;99.90
19174;DHT22;9719;49.322;8.536;2023-04-16T14:37:22;13.60;99.90
19174;DHT22;9719;49.322;8.536;2023-04-16T14:42:24;13.60;99.90
19174;DHT22;9719;49.322;8.536;2023-04-16T14:47:27;13.60;99.90
19174;DHT22;9719;49.322;8.536;2023-04-16T14:52:29;13.60;99.90
19174;DHT22;9719;49.322;8.536;2023-04-16T14:57:31;13.60;99.90
19174;DHT22;9719;49.322;8.536;2023-04-16T15:02:34;13.60;99.90
19174;DHT22;9719;49.322;8.536;2023-04-16T15:07:36;13.60;99.90
19174;DHT22;9719;49.322;8.536;2023-04-16T15:12:38;13.60;99.90
19174;DHT22;9719;49.322;8.536;2023-04-16T15:17:42;13.60;99.90
19174;DHT22;9719;49.322;8.536;2023-04-16T15:22:43;13.60;99.90
19174;DHT22;9719;49.322;8.536;2023-04-16T15:27:45;13.50;99.90
19174;DHT22;9719;49.322;8.536;2023-04-16T15:32:48;13.50;99.90
19174;DHT22;9719;49.322;8.536;2023-04-16T15:37:50;13.60;99.90
19174;DHT22;9719;49.322;8.536;2023-04-16T15:42:54;13.60;99.90
19174;DHT22;9719;49.322;8.536;2023-04-16T15:47:57;13.70;99.90
19174;DHT22;9719;49.322;8.536;2023-04-16T15:52:59;13.80;99.90
19174;DHT22;9719;49.322;8.536;2023-04-16T15:58:01;13.90;99.90
19174;DHT22;9719;49.322;8.536;2023-04-16T16:03:04;14.00;99.90
19174;DHT22;9719;49.322;8.536;2023-04-16T16:08:06;14.20;99.90
19174;DHT22;9719;49.322;8.536;2023-04-16T16:13:07;14.30;99.90
19174;DHT22;9719;49.322;8.536;2023-04-16T16:18:13;14.30;99.90
19174;DHT22;9719;49.322;8.536;2023-04-16T16:23:15;14.40;99.90
19174;DHT22;9719;49.322;8.536;2023-04-16T16:28:17;14.30;99.90
19174;DHT22;9719;49.322;8.536;2023-04-16T16:33:21;14.30;99.90
19174;DHT22;9719;49.322;8.536;2023-04-16T16:38:23;14.20;99.90
19174;DHT22;9719;49.322;8.536;2023-04-16T16:43:25;14.20;99.90
19174;DHT22;9719;49.322;8.536;2023-04-16T16:48:28;14.20;99.90
19174;DHT22;9719;49.322;8.536;2023-04-16T16:53:30;14.10;99.90
19174;DHT22;9719;49.322;8.536;2023-04-16T16:58:31;14.00;99.90
19174;DHT22;9719;49.322;8.536;2023-04-16T17:03:34;13.90;99.90
19174;DHT22;9719;49.322;8.536;2023-04-16T17:08:36;13.70;99.90
19174;DHT22;9719;49.322;8.536;2023-04-16T17:13:38;13.60;99.90
19174;DHT22;9719;49.322;8.536;2023-04-16T17:18:41;13.50;99.90
19174;DHT22;9719;49.322;8.536;2023-04-16T17:23:43;13.50;99.90
19174;DHT22;9719;49.322;8.536;2023-04-16T17:28:44;13.40;99.90
19174;DHT22;9719;49.322;8.536;2023-04-16T17:33:48;13.30;99.90
19174;DHT22;9719;49.322;8.536;2023-04-16T17:38:50;13.30;99.90
19174;DHT22;9719;49.322;8.536;2023-04-16T17:43:52;13.20;99.90
19174;DHT22;9719;49.322;8.536;2023-04-16T17:48:55;13.30;99.90
19174;DHT22;9719;49.322;8.536;2023-04-16T17:53:56;13.20;99.90
19174;DHT22;9719;49.322;8.536;2023-04-16T17:58:58;13.20;99.90
19174;DHT22;9719;49.322;8.536;2023-04-16T18:04:02;13.20;99.90
19174;DHT22;9719;49.322;8.536;2023-04-16T18:09:03;13.20;99.90
19174;DHT22;9719;49.322;8.536;2023-04-16T18:14:06;13.10;99.90
19174;DHT22;9719;49.322;8.536;2023-04-16T18:19:10;13.10;99.90
19174;DHT22;9719;49.322;8.536;2023-04-16T18:24:12;13.10;99.90
19174;DHT22;9719;49.322;8.536;2023-04-16T18:29:15;13.10;99.90
19174;DHT22;9719;49.322;8.536;2023-04-16T18:34:18;13.10;99.90
19174;DHT22;9719;49.322;8.536;2023-04-16T18:39:20;13.10;99.90
19174;DHT22;9719;49.322;8.536;2023-04-16T18:44:21;13.10;99.90
19174;DHT22;9719;49.322;8.536;2023-04-16T18:49:25;13.00;99.90
19174;DHT22;9719;49.322;8.536;2023-04-16T18:54:27;12.90;99.90
19174;DHT22;9719;49.322;8.536;2023-04-16T18:59:28;12.80;99.90
19174;DHT22;9719;49.322;8.536;2023-04-16T19:04:31;12.80;99.90
19174;DHT22;9719;49.322;8.536;2023-04-16T19:09:33;12.80;99.90
19174;DHT22;9719;49.322;8.536;2023-04-16T19:14:35;12.80;99.90
19174;DHT22;9719;49.322;8.536;2023-04-16T19:19:38;12.80;99.90
19174;DHT22;9719;49.322;8.536;2023-04-16T19:24:40;12.80;99.90
19174;DHT22;9719;49.322;8.536;2023-04-16T19:29:41;12.70;99.90
19174;DHT22;9719;49.322;8.536;2023-04-16T19:34:46;12.70;99.90
19174;DHT22;9719;49.322;8.536;2023-04-16T19:39:47;12.70;99.90
19174;DHT22;9719;49.322;8.536;2023-04-16T19:44:49;12.60;99.90
19174;DHT22;9719;49.322;8.536;2023-04-16T19:49:52;12.70;99.90
19174;DHT22;9719;49.322;8.536;2023-04-16T19:54:54;12.60;99.90
19174;DHT22;9719;49.322;8.536;2023-04-16T19:59:56;12.60;99.90
19174;DHT22;9719;49.322;8.536;2023-04-16T20:05:01;12.50;99.90
19174;DHT22;9719;49.322;8.536;2023-04-16T20:10:03;12.50;99.90
19174;DHT22;9719;49.322;8.536;2023-04-16T20:15:06;12.40;99.90
19174;DHT22;9719;49.322;8.536;2023-04-16T20:20:10;12.40;99.90
19174;DHT22;9719;49.322;8.536;2023-04-16T20:25:14;12.50;99.90
19174;DHT22;9719;49.322;8.536;2023-04-16T20:30:18;12.40;99.90
19174;DHT22;9719;49.322;8.536;2023-04-16T20:35:23;12.50;99.90
19174;DHT22;9719;49.322;8.536;2023-04-16T20:40:25;12.50;99.90
19174;DHT22;9719;49.322;8.536;2023-04-16T20:45:30;12.40;99.90
19174;DHT22;9719;49.322;8.536;2023-04-16T20:50:38;12.50;99.90
19174;DHT22;9719;49.322;8.536;2023-04-16T20:55:42;12.50;99.90
19174;DHT22;9719;49.322;8.536;2023-04-16T21:00:47;12.50;99.90
19174;DHT22;9719;49.322;8.536;2023-04-16T21:05:51;12.40;99.90
19174;DHT22;9719;49.322;8.536;2023-04-16T21:10:53;12.50;99.90
19174;DHT22;9719;49.322;8.536;2023-04-16T21:15:55;12.50;99.90
19174;DHT22;9719;49.322;8.536;2023-04-16T21:20:58;12.40;99.90
19174;DHT22;9719;49.322;8.536;2023-04-16T21:26:00;12.40;99.90
19174;DHT22;9719;49.322;8.536;2023-04-16T21:31:02;12.40;99.90
19174;DHT22;9719;49.322;8.536;2023-04-16T21:36:05;12.40;99.90
19174;DHT22;9719;49.322;8.536;2023-04-16T21:41:07;12.30;99.90
19174;DHT22;9719;49.322;8.536;2023-04-16T21:46:08;12.20;99.90
19174;DHT22;9719;49.322;8.536;2023-04-16T21:51:11;12.20;99.90
19174;DHT22;9719;49.322;8.536;2023-04-16T21:56:13;12.20;99.90
19174;DHT22;9719;49.322;8.536;2023-04-16T22:01:15;12.20;99.90
19174;DHT22;9719;49.322;8.536;2023-04-16T22:06:18;12.20;99.90
19174;DHT22;9719;49.322;8.536;2023-04-16T22:11:20;12.20;99.90
19174;DHT22;9719;49.322;8.536;2023-04-16T22:16:22;12.20;99.90
19174;DHT22;9719;49.322;8.536;2023-04-16T22:21:26;12.20;99.90
19174;DHT22;9719;49.322;8.536;2023-04-16T22:26:28;12.20;99.90
19174;DHT22;9719;49.322;8.536;2023-04-16T22:31:29;12.20;99.90
19174;DHT22;9719;49.322;8.536;2023-04-16T22:36:32;12.20;99.90
19174;DHT22;9719;49.322;8.536;2023-04-16T22:41:34;12.10;99.90
19174;DHT22;9719;49.322;8.536;2023-04-16T22:46:36;12.10;99.90
19174;DHT22;9719;49.322;8.536;2023-04-16T22:51:39;12.10;99.90
19174;DHT22;9719;49.322;8.536;2023-04-16T22:56:40;12.10;99.90
19174;DHT22;9719;49.322;8.536;2023-04-16T23:01:42;12.00;99.90
19174;DHT22;9719;49.322;8.536;2023-04-16T23:06:45;12.00;99.90
19174;DHT22;9719;49.322;8.536;2023-04-16T23:11:47;11.90;99.90
19174;DHT22;9719;49.322;8.536;2023-04-16T23:16:48;11.90;99.90
19174;DHT22;9719;49.322;8.536;2023-04-16T23:21:51;11.80;99.90
19174;DHT22;9719;49.322;8.536;2023-04-16T23:26:53;11.80;99.90
19174;DHT22;9719;49.322;8.536;2023-04-16T23:31:55;11.70;99.90
19174;DHT22;9719;49.322;8.536;2023-04-16T23:36:59;11.70;99.90
19174;DHT22;9719;49.322;8.536;2023-04-16T23:42:00;11.70;99.90
19174;DHT22;9719;49.322;8.536;2023-04-16T23:47:02;11.70;99.90
19174;DHT22;9719;49.322;8.536;2023-04-16T23:52:05;11.70;99.90
19174;DHT22;9719;49.322;8.536;2023-04-16T23:57:07;11.70;99.90
